createdAt,value
2023-12-01T00:01:46.665Z,61.23
2023-12-01T00:04:19.316Z,61.29
2023-12-01T00:06:52.007Z,61.39
2023-12-01T00:09:25.010Z,61.33
2023-12-01T00:11:57.394Z,61.35
2023-12-01T00:14:29.683Z,61.30
2023-12-01T00:17:03.268Z,61.38
2023-12-01T00:19:36.057Z,61.31
2023-12-01T00:22:08.975Z,61.23
2023-12-01T00:24:41.444Z,61.18
2023-12-01T00:27:14.126Z,61.23
2023-12-01T00:29:46.584Z,61.15
2023-12-01T00:32:19.046Z,61.22
2023-12-01T00:34:51.590Z,61.20
2023-12-01T00:37:23.899Z,61.46
2023-12-01T00:39:56.341Z,61.48
2023-12-01T00:42:28.767Z,61.30
2023-12-01T00:45:02.265Z,61.53
2023-12-01T00:47:34.875Z,61.67
2023-12-01T00:50:09.162Z,61.67
2023-12-01T00:52:41.661Z,61.71
2023-12-01T00:55:14.196Z,61.70
2023-12-01T00:57:47.080Z,61.77
2023-12-01T01:00:20.900Z,61.40
2023-12-01T01:02:53.422Z,61.53
2023-12-01T01:05:26.308Z,61.45
2023-12-01T01:07:58.777Z,61.77
2023-12-01T01:10:31.166Z,62.08
2023-12-01T01:13:03.704Z,62.16
2023-12-01T01:15:36.258Z,62.23
2023-12-01T01:18:09.031Z,62.11
2023-12-01T01:20:41.485Z,61.97
2023-12-01T01:23:13.912Z,62.04
2023-12-01T01:25:46.616Z,62.27
2023-12-01T01:28:20.093Z,62.46
2023-12-01T01:30:52.975Z,62.45
2023-12-01T01:33:25.374Z,62.45
2023-12-01T01:35:57.716Z,62.51
2023-12-01T01:38:31.075Z,62.53
2023-12-01T01:41:03.619Z,62.49
2023-12-01T01:43:36.119Z,62.44
2023-12-01T01:46:12.513Z,62.41
2023-12-01T01:48:45.353Z,62.63
2023-12-01T01:51:18.414Z,62.70
2023-12-01T01:53:51.763Z,62.51
2023-12-01T01:56:25.161Z,62.60
2023-12-01T01:58:57.624Z,63.08
2023-12-01T02:01:31.255Z,63.11
2023-12-01T02:04:05.071Z,63.52
2023-12-01T02:06:38.492Z,63.47
2023-12-01T02:09:11.699Z,63.47
2023-12-01T02:11:44.702Z,63.03
2023-12-01T02:14:17.907Z,62.83
2023-12-01T02:16:50.997Z,62.65
2023-12-01T02:19:23.512Z,62.58
2023-12-01T02:21:56.669Z,62.11
2023-12-01T02:24:29.385Z,61.15
2023-12-01T02:27:01.834Z,60.79
2023-12-01T02:29:34.250Z,60.86
2023-12-01T02:32:09.373Z,60.96
2023-12-01T02:34:46.802Z,60.89
2023-12-01T02:37:19.202Z,61.12
2023-12-01T02:39:52.260Z,61.22
2023-12-01T02:42:24.674Z,61.15
2023-12-01T02:44:57.192Z,61.16
2023-12-01T02:47:29.569Z,61.28
2023-12-01T02:50:01.901Z,61.39
2023-12-01T02:52:34.268Z,61.26
2023-12-01T02:55:09.236Z,61.24
2023-12-01T02:57:42.270Z,61.30
2023-12-01T03:00:16.111Z,61.38
2023-12-01T03:02:49.313Z,61.60
2023-12-01T03:05:22.619Z,61.59
2023-12-01T03:07:55.065Z,61.33
2023-12-01T03:10:27.562Z,61.22
2023-12-01T03:13:00.033Z,61.01
2023-12-01T03:15:32.821Z,61.00
2023-12-01T03:18:05.311Z,60.87
2023-12-01T03:20:37.725Z,60.93
2023-12-01T03:23:10.225Z,61.15
2023-12-01T03:25:42.656Z,61.29
2023-12-01T03:28:16.403Z,61.80
2023-12-01T03:30:49.010Z,61.68
2023-12-01T03:33:21.370Z,61.38
2023-12-01T03:35:53.832Z,61.42
2023-12-01T03:38:26.454Z,61.29
2023-12-01T03:41:01.464Z,61.45
2023-12-01T03:43:34.644Z,61.51
2023-12-01T03:46:07.907Z,61.54
2023-12-01T03:48:40.347Z,61.48
2023-12-01T03:51:12.936Z,61.53
2023-12-01T03:53:45.275Z,61.32
2023-12-01T03:56:17.783Z,61.31
2023-12-01T03:58:50.386Z,61.20
2023-12-01T04:01:22.822Z,61.13
2023-12-01T04:03:55.840Z,61.17
2023-12-01T04:06:28.323Z,61.37
2023-12-01T04:09:06.488Z,61.33
2023-12-01T04:11:39.847Z,61.34
2023-12-01T04:14:12.289Z,61.38
2023-12-01T04:16:44.750Z,61.51
2023-12-01T04:19:17.124Z,61.54
2023-12-01T04:21:49.399Z,61.31
2023-12-01T04:24:22.617Z,61.10
2023-12-01T04:26:55.092Z,60.96
2023-12-01T04:29:29.285Z,60.87
2023-12-01T04:32:02.645Z,60.79
2023-12-01T04:34:35.312Z,60.93
2023-12-01T04:37:10.949Z,61.16
2023-12-01T04:39:43.582Z,61.23
2023-12-01T04:42:17.039Z,60.60
2023-12-01T04:44:50.896Z,59.98
2023-12-01T04:47:24.519Z,59.78
2023-12-01T04:49:57.091Z,59.68
2023-12-01T04:52:29.643Z,59.66
2023-12-01T04:55:02.210Z,59.75
2023-12-01T04:57:34.541Z,59.63
2023-12-01T05:00:20.333Z,59.43
2023-12-01T05:02:54.024Z,59.15
2023-12-01T05:05:28.249Z,59.04
2023-12-01T05:08:02.433Z,58.46
2023-12-01T05:10:36.264Z,58.08
2023-12-01T05:13:10.221Z,57.86
2023-12-01T05:15:43.366Z,57.75
2023-12-01T05:18:16.020Z,57.65
2023-12-01T05:20:49.581Z,57.66
2023-12-01T05:23:22.358Z,57.57
2023-12-01T05:25:54.796Z,57.29
2023-12-01T05:28:27.342Z,57.03
2023-12-01T05:30:59.979Z,57.03
2023-12-01T05:33:38.059Z,56.94
2023-12-01T05:36:15.570Z,56.73
2023-12-01T05:38:48.131Z,56.66
2023-12-01T05:41:20.638Z,55.33
2023-12-01T05:43:53.041Z,55.93
2023-12-01T05:46:25.556Z,56.38
2023-12-01T05:48:58.971Z,56.31
2023-12-01T05:51:34.507Z,56.03
2023-12-01T05:54:07.146Z,56.00
2023-12-01T05:56:39.609Z,55.60
2023-12-01T05:59:12.046Z,55.47
2023-12-01T06:01:44.621Z,54.82
2023-12-01T06:04:17.163Z,54.20
2023-12-01T06:06:49.705Z,53.87
2023-12-01T06:09:22.772Z,53.93
2023-12-01T06:11:55.333Z,53.68
2023-12-01T06:14:27.764Z,54.00
2023-12-01T06:17:00.439Z,54.15
2023-12-01T06:19:34.439Z,54.52
2023-12-01T06:22:07.328Z,54.73
2023-12-01T06:24:39.832Z,54.48
2023-12-01T06:27:13.377Z,54.81
2023-12-01T06:29:45.993Z,55.00
2023-12-01T06:32:18.452Z,55.21
2023-12-01T06:34:50.927Z,54.99
2023-12-01T06:37:23.354Z,55.18
2023-12-01T06:39:55.795Z,55.11
2023-12-01T06:42:28.237Z,55.19
2023-12-01T06:45:00.524Z,54.95
2023-12-01T06:47:33.565Z,54.75
2023-12-01T06:50:07.226Z,55.07
2023-12-01T06:52:40.348Z,54.86
2023-12-01T06:55:13.641Z,54.88
2023-12-01T06:57:49.777Z,54.95
2023-12-01T07:00:34.931Z,54.73
2023-12-01T07:03:10.521Z,54.88
2023-12-01T07:05:46.671Z,54.62
2023-12-01T07:08:19.267Z,54.27
2023-12-01T07:10:53.214Z,53.21
2023-12-01T07:13:26.035Z,53.28
2023-12-01T07:15:58.784Z,52.77
2023-12-01T07:18:31.219Z,52.87
2023-12-01T07:21:07.767Z,52.70
2023-12-01T07:23:42.840Z,52.85
2023-12-01T07:26:16.784Z,52.78
2023-12-01T07:28:49.308Z,52.52
2023-12-01T07:31:21.882Z,52.60
2023-12-01T07:33:56.771Z,52.38
2023-12-01T07:36:35.896Z,52.47
2023-12-01T07:39:14.608Z,52.61
2023-12-01T07:41:49.541Z,52.44
2023-12-01T07:44:24.525Z,52.49
2023-12-01T07:46:57.150Z,52.16
2023-12-01T07:49:32.082Z,52.63
2023-12-01T07:52:08.112Z,52.55
2023-12-01T07:54:42.631Z,51.98
2023-12-01T07:57:15.424Z,52.11
2023-12-01T07:59:47.974Z,51.63
2023-12-01T08:02:20.611Z,51.72
2023-12-01T08:04:53.265Z,51.79
2023-12-01T08:07:25.802Z,52.01
2023-12-01T08:09:58.488Z,51.76
2023-12-01T08:12:31.048Z,51.88
2023-12-01T08:15:03.597Z,51.38
2023-12-01T08:17:36.212Z,49.89
2023-12-01T08:20:11.821Z,49.64
2023-12-01T08:22:47.477Z,49.90
2023-12-01T08:25:23.933Z,49.93
2023-12-01T08:27:56.512Z,50.27
2023-12-01T08:30:29.682Z,50.14
2023-12-01T08:33:02.589Z,49.60
2023-12-01T08:35:35.241Z,49.13
2023-12-01T08:38:07.672Z,49.73
2023-12-01T08:40:43.548Z,49.97
2023-12-01T08:43:17.386Z,49.36
2023-12-01T08:45:49.849Z,49.97
2023-12-01T08:48:22.413Z,49.85
2023-12-01T08:50:54.912Z,49.93
2023-12-01T08:53:27.485Z,50.03
2023-12-01T08:56:01.602Z,49.90
2023-12-01T08:58:38.048Z,49.79
2023-12-01T09:01:10.947Z,50.04
2023-12-01T09:03:43.468Z,50.08
2023-12-01T09:06:16.453Z,50.04
2023-12-01T09:08:48.971Z,50.02
2023-12-01T09:11:21.656Z,49.87
2023-12-01T09:13:54.628Z,49.76
2023-12-01T09:16:31.316Z,50.13
2023-12-01T09:19:06.025Z,49.85
2023-12-01T09:21:40.004Z,49.50
2023-12-01T09:24:12.562Z,49.90
2023-12-01T09:26:45.048Z,49.98
2023-12-01T09:29:17.585Z,50.11
2023-12-01T09:31:51.083Z,49.94
2023-12-01T09:34:23.576Z,49.65
2023-12-01T09:36:58.604Z,49.63
2023-12-01T09:39:31.449Z,49.54
2023-12-01T09:42:09.427Z,49.62
2023-12-01T09:44:42.137Z,49.93
2023-12-01T09:47:18.640Z,49.93
2023-12-01T09:49:53.998Z,49.94
2023-12-01T09:52:26.581Z,48.88
2023-12-01T09:55:07.745Z,49.07
2023-12-01T09:57:44.182Z,49.67
2023-12-01T10:00:18.397Z,49.52
2023-12-01T10:02:51.187Z,49.86
2023-12-01T10:05:23.812Z,50.07
2023-12-01T10:07:57.335Z,50.25
2023-12-01T10:10:30.967Z,50.04
2023-12-01T10:13:06.266Z,49.96
2023-12-01T10:15:40.080Z,49.70
2023-12-01T10:18:20.416Z,49.79
2023-12-01T10:21:05.213Z,49.98
2023-12-01T10:23:38.990Z,50.23
2023-12-01T10:26:13.281Z,50.07
2023-12-01T10:28:46.016Z,50.47
2023-12-01T10:31:20.405Z,50.69
2023-12-01T10:33:53.374Z,50.60
2023-12-01T10:36:26.082Z,50.51
2023-12-01T10:39:03.113Z,50.55
2023-12-01T10:41:36.894Z,50.61
2023-12-01T10:44:10.504Z,50.39
2023-12-01T10:46:46.523Z,50.57
2023-12-01T10:49:21.210Z,50.50
2023-12-01T10:51:55.281Z,50.33
2023-12-01T10:54:31.496Z,50.69
2023-12-01T10:57:24.604Z,50.96
2023-12-01T10:59:59.896Z,50.95
2023-12-01T11:02:40.984Z,51.09
2023-12-01T11:05:15.195Z,51.11
2023-12-01T11:08:03.401Z,51.36
2023-12-01T11:10:43.584Z,51.37
2023-12-01T11:13:29.614Z,51.01
2023-12-01T11:16:02.888Z,50.88
2023-12-01T11:18:35.647Z,50.83
2023-12-01T11:21:10.073Z,50.88
2023-12-01T11:23:42.764Z,50.68
2023-12-01T11:26:15.569Z,50.77
2023-12-01T11:28:57.297Z,50.80
2023-12-01T11:31:38.452Z,50.51
2023-12-01T11:34:18.255Z,50.80
2023-12-01T11:36:54.335Z,51.07
2023-12-01T11:39:38.717Z,50.93
2023-12-01T11:42:21.673Z,50.56
2023-12-01T11:45:02.028Z,50.75
2023-12-01T11:47:41.218Z,50.87
2023-12-01T11:50:18.015Z,51.02
2023-12-01T11:52:56.600Z,50.95
2023-12-01T11:55:36.226Z,50.75
2023-12-01T11:58:09.840Z,51.04
2023-12-01T12:00:47.272Z,51.04
2023-12-01T12:03:27.087Z,51.01
2023-12-01T12:06:09.637Z,51.05
2023-12-01T12:08:49.038Z,50.96
2023-12-01T12:11:27.052Z,51.25
2023-12-01T12:14:05.942Z,51.35
2023-12-01T12:16:39.401Z,51.38
2023-12-01T12:19:33.639Z,51.45
2023-12-01T12:22:06.984Z,51.32
2023-12-01T12:24:50.193Z,51.32
2023-12-01T12:27:25.216Z,51.24
2023-12-01T12:30:05.293Z,51.31
2023-12-01T12:32:45.820Z,51.36
2023-12-01T12:35:24.352Z,51.36
2023-12-01T12:37:58.063Z,51.42
2023-12-01T12:40:36.694Z,51.56
2023-12-01T12:43:11.753Z,51.36
2023-12-01T12:45:49.840Z,51.24
2023-12-01T12:48:28.527Z,51.18
2023-12-01T12:51:16.930Z,50.91
2023-12-01T12:53:51.981Z,50.91
2023-12-01T12:56:37.806Z,51.01
2023-12-01T12:59:22.944Z,51.38
2023-12-01T13:02:16.605Z,51.40
2023-12-01T13:04:52.712Z,51.52
2023-12-01T13:07:27.531Z,51.59
2023-12-01T13:10:03.033Z,51.59
2023-12-01T13:12:51.284Z,51.70
2023-12-01T13:15:35.553Z,51.85
2023-12-01T13:18:14.956Z,51.93
2023-12-01T13:20:59.470Z,52.04
2023-12-01T13:23:37.445Z,52.16
2023-12-01T13:26:16.132Z,52.20
2023-12-01T13:28:48.637Z,52.35
2023-12-01T13:31:31.380Z,52.41
2023-12-01T13:34:06.559Z,52.48
2023-12-01T13:36:43.325Z,52.33
2023-12-01T13:39:21.359Z,52.39
2023-12-01T13:42:09.109Z,52.38
2023-12-01T13:44:55.144Z,52.65
2023-12-01T13:47:33.686Z,52.80
2023-12-01T13:50:19.923Z,52.84
2023-12-01T13:52:57.175Z,52.74
2023-12-01T13:55:31.066Z,52.64
2023-12-01T13:58:08.918Z,52.69
2023-12-01T14:00:50.421Z,52.85
2023-12-01T14:03:29.890Z,52.73
2023-12-01T14:06:16.588Z,52.84
2023-12-01T14:08:51.642Z,52.87
2023-12-01T14:11:26.506Z,52.86
2023-12-01T14:14:01.686Z,52.83
2023-12-01T14:16:42.885Z,52.96
2023-12-01T14:19:20.643Z,53.15
2023-12-01T14:21:55.644Z,53.18
2023-12-01T14:24:33.065Z,53.24
2023-12-01T14:27:09.862Z,53.45
2023-12-01T14:29:49.042Z,53.46
2023-12-01T14:32:26.337Z,53.53
2023-12-01T14:35:04.572Z,53.53
2023-12-01T14:37:43.175Z,53.64
2023-12-01T14:40:21.060Z,53.76
2023-12-01T14:42:55.780Z,53.78
2023-12-01T14:45:30.488Z,53.94
2023-12-01T14:48:09.642Z,53.99
2023-12-01T14:50:51.462Z,54.00
2023-12-01T14:53:27.419Z,54.08
2023-12-01T14:56:08.608Z,54.11
2023-12-01T14:58:42.180Z,54.10
2023-12-01T15:01:16.251Z,54.21
2023-12-01T15:08:25.271Z,54.28
2023-12-01T15:11:07.225Z,54.52
2023-12-01T15:13:39.798Z,54.39
2023-12-01T15:16:20.525Z,54.36
2023-12-01T15:18:53.120Z,54.44
2023-12-01T15:21:25.902Z,54.64
2023-12-01T15:23:58.703Z,54.61
2023-12-01T15:26:31.267Z,54.74
2023-12-01T15:29:04.349Z,54.79
2023-12-01T15:31:36.754Z,54.82
2023-12-01T15:34:11.881Z,54.87
2023-12-01T15:36:44.359Z,54.85
2023-12-01T15:39:17.121Z,55.26
2023-12-01T15:41:49.915Z,55.22
2023-12-01T15:44:22.335Z,55.32
2023-12-01T15:46:55.552Z,55.35
2023-12-01T15:49:28.378Z,55.49
2023-12-01T15:52:04.432Z,55.51
2023-12-01T15:54:40.043Z,55.58
2023-12-01T15:57:13.936Z,55.66
2023-12-01T15:59:47.071Z,55.75
2023-12-01T16:02:20.278Z,55.74
2023-12-01T16:04:52.951Z,55.59
2023-12-01T16:07:25.410Z,55.63
2023-12-01T16:09:57.829Z,55.58
2023-12-01T16:12:30.229Z,55.57
2023-12-01T16:15:12.902Z,55.68
2023-12-01T16:17:50.457Z,55.77
2023-12-01T16:20:23.175Z,55.90
2023-12-01T16:22:56.436Z,55.89
2023-12-01T16:25:29.435Z,55.91
2023-12-01T16:28:01.931Z,56.05
2023-12-01T16:30:34.694Z,56.07
2023-12-01T16:33:07.515Z,56.09
2023-12-01T16:35:46.438Z,56.18
2023-12-01T16:38:20.308Z,56.23
2023-12-01T16:40:55.860Z,56.23
2023-12-01T16:43:34.163Z,56.19
2023-12-01T16:46:14.727Z,56.33
2023-12-01T16:48:57.247Z,56.42
2023-12-01T16:51:32.897Z,56.43
2023-12-01T16:54:11.110Z,56.51
2023-12-01T16:56:52.032Z,56.39
2023-12-01T16:59:36.824Z,56.36
2023-12-01T17:02:14.533Z,56.59
2023-12-01T17:04:53.093Z,56.92
2023-12-01T17:07:30.336Z,57.17
2023-12-01T17:10:07.202Z,57.29
2023-12-01T17:12:43.522Z,57.44
2023-12-01T17:15:26.119Z,57.59
2023-12-01T17:18:06.339Z,57.69
2023-12-01T17:20:47.649Z,57.88
2023-12-01T17:23:25.110Z,57.97
2023-12-01T17:26:05.498Z,58.12
2023-12-01T17:28:41.188Z,58.25
2023-12-01T17:31:26.771Z,58.26
2023-12-01T17:34:06.790Z,58.23
2023-12-01T17:36:50.733Z,58.20
2023-12-01T17:39:31.667Z,57.98
2023-12-01T17:42:09.419Z,58.33
2023-12-01T17:44:47.509Z,58.41
2023-12-01T17:47:23.316Z,58.86
2023-12-01T17:50:00.308Z,59.20
2023-12-01T17:52:40.535Z,59.61
2023-12-01T17:55:20.342Z,59.59
2023-12-01T17:58:00.317Z,59.64
2023-12-01T18:00:38.601Z,59.45
2023-12-01T18:03:21.233Z,59.46
2023-12-01T18:06:02.198Z,59.42
2023-12-01T18:08:42.714Z,59.44
2023-12-01T18:11:19.899Z,59.36
2023-12-01T18:13:55.844Z,59.24
2023-12-01T18:16:30.741Z,59.25
2023-12-01T18:19:04.190Z,59.21
2023-12-01T18:21:37.338Z,59.03
2023-12-01T18:24:10.318Z,58.96
2023-12-01T18:26:44.660Z,58.84
2023-12-01T18:29:17.512Z,58.91
2023-12-01T18:31:50.143Z,58.96
2023-12-01T18:34:22.869Z,58.96
2023-12-01T18:36:57.912Z,58.93
2023-12-01T18:39:31.351Z,58.82
2023-12-01T18:42:04.159Z,58.89
2023-12-01T18:44:36.843Z,58.88
2023-12-01T18:47:09.860Z,58.96
2023-12-01T18:49:42.467Z,59.00
2023-12-01T18:52:15.140Z,59.02
2023-12-01T18:54:47.691Z,58.83
2023-12-01T18:57:20.190Z,58.79
2023-12-01T18:59:53.064Z,58.96
2023-12-01T19:02:25.605Z,58.91
2023-12-01T19:04:58.333Z,58.91
2023-12-01T19:07:33.126Z,58.91
2023-12-01T19:10:06.373Z,58.92
2023-12-01T19:12:38.905Z,58.99
2023-12-01T19:15:14.118Z,58.97
2023-12-01T19:17:46.783Z,58.86
2023-12-01T19:20:19.931Z,58.89
2023-12-01T19:22:52.409Z,58.91
2023-12-01T19:25:24.991Z,58.92
2023-12-01T19:27:58.045Z,58.98
2023-12-01T19:30:30.801Z,59.15
2023-12-01T19:33:04.793Z,59.28
2023-12-01T19:35:37.297Z,59.24
2023-12-01T19:38:10.624Z,59.12
2023-12-01T19:40:43.095Z,59.19
2023-12-01T19:43:15.750Z,59.02
2023-12-01T19:45:49.331Z,58.89
2023-12-01T19:48:25.096Z,58.94
2023-12-01T19:50:59.036Z,58.89
2023-12-01T19:53:34.922Z,58.86
2023-12-01T19:56:09.928Z,58.99
2023-12-01T19:58:42.501Z,59.10
2023-12-01T20:01:15.247Z,59.08
2023-12-01T20:03:47.712Z,59.08
2023-12-01T20:06:20.503Z,59.28
2023-12-01T20:08:53.225Z,59.43
2023-12-01T20:11:28.333Z,59.50
2023-12-01T20:14:00.985Z,59.47
2023-12-01T20:16:34.197Z,59.46
2023-12-01T20:19:07.100Z,59.47
2023-12-01T20:21:40.459Z,59.58
2023-12-01T20:24:13.114Z,59.72
2023-12-01T20:26:48.029Z,59.67
2023-12-01T20:29:23.473Z,59.73
2023-12-01T20:31:57.235Z,59.91
2023-12-01T20:34:31.458Z,59.78
2023-12-01T20:37:04.279Z,59.92
2023-12-01T20:39:39.910Z,60.05
2023-12-01T20:42:17.910Z,60.04
2023-12-01T20:44:54.405Z,60.04
2023-12-01T20:47:27.394Z,60.09
2023-12-01T20:50:01.125Z,60.05
2023-12-01T20:52:34.401Z,60.08
2023-12-01T20:55:09.874Z,60.24
2023-12-01T21:00:29.521Z,60.22
2023-12-01T21:00:50.494Z,60.34
2023-12-01T21:03:25.807Z,60.30
2023-12-01T21:05:58.624Z,60.32
2023-12-01T21:08:31.570Z,60.32
2023-12-01T21:11:06.701Z,60.70
2023-12-01T21:13:41.097Z,65.44
2023-12-01T21:16:16.388Z,66.56
2023-12-01T21:19:19.394Z,66.03
2023-12-01T21:21:55.874Z,61.26
2023-12-01T21:24:31.073Z,59.47
2023-12-01T21:27:03.745Z,58.96
2023-12-01T21:29:39.548Z,58.88
2023-12-01T21:32:31.271Z,58.73
2023-12-01T21:35:25.400Z,58.77
2023-12-01T21:38:02.092Z,58.69
2023-12-01T21:40:37.269Z,58.77
2023-12-01T21:44:49.275Z,58.81
2023-12-01T21:47:02.560Z,58.91
2023-12-01T21:49:44.174Z,59.13
2023-12-01T21:52:25.819Z,59.18
2023-12-01T21:55:06.614Z,59.30
2023-12-01T21:57:42.638Z,59.31
2023-12-01T22:00:16.918Z,59.41
2023-12-01T22:02:49.828Z,59.64
2023-12-01T22:05:25.196Z,59.67
2023-12-01T22:07:58.332Z,59.79
2023-12-01T22:10:30.949Z,59.71
2023-12-01T22:13:04.302Z,59.69
2023-12-01T22:15:37.136Z,59.79
2023-12-01T22:18:10.033Z,59.82
2023-12-01T22:20:42.732Z,59.89
2023-12-01T22:23:15.462Z,60.07
2023-12-01T22:25:47.965Z,60.10
2023-12-01T22:28:20.592Z,60.15
2023-12-01T22:30:54.178Z,60.09
2023-12-01T22:33:26.847Z,60.02
2023-12-01T22:36:03.018Z,60.17
2023-12-01T22:38:40.978Z,60.12
2023-12-01T22:41:14.896Z,60.11
2023-12-01T22:43:49.099Z,60.20
2023-12-01T22:46:21.706Z,60.21
2023-12-01T22:48:54.281Z,60.27
2023-12-01T22:51:28.952Z,60.39
2023-12-01T22:54:04.809Z,60.44
2023-12-01T22:56:37.467Z,60.45
2023-12-01T22:59:12.163Z,60.48
2023-12-01T23:01:45.269Z,60.48
2023-12-01T23:04:20.170Z,60.50
2023-12-01T23:06:54.843Z,60.52
2023-12-01T23:09:27.450Z,60.76
2023-12-01T23:12:01.835Z,60.78
2023-12-01T23:14:36.980Z,60.79
2023-12-01T23:17:09.765Z,60.72
2023-12-01T23:19:50.014Z,60.83
2023-12-01T23:22:26.048Z,60.74
2023-12-01T23:25:10.609Z,60.96
2023-12-01T23:27:46.315Z,61.21
2023-12-01T23:30:25.496Z,61.44
2023-12-01T23:32:59.620Z,61.42
2023-12-01T23:35:32.401Z,61.50
2023-12-01T23:38:08.010Z,61.53
2023-12-01T23:40:44.667Z,61.54
2023-12-01T23:43:19.462Z,61.47
2023-12-01T23:45:53.024Z,61.61
2023-12-01T23:48:30.783Z,61.48
2023-12-01T23:51:04.310Z,61.65
2023-12-01T23:53:37.551Z,62.08
2023-12-01T23:56:16.678Z,62.74
2023-12-01T23:58:54.020Z,62.81
